Aérodrome :
LOGIN :

S'inscrire | Disclaimer

   EN    FR    IT 

 










Légende :    VFR   VFR Marginal   IFR   IFR Intensif   IFR Très Intensif
Visi : 
Plafond : 
>= 8 km
>= 3000ft
5 à 8 km
1000 à 3000 ft
1500m à 5 km
500 à 1000 ft
800 à 1500m
200 à 500 ft
< 800m
< 200 ft
Symboles :   Orages  Brouillard  Fortes neiges  Fortes précipitations  Vent > 20 kt
SIGMETs :   Divers  Orages  Givrage  Turbulence  Onde Orograph.  Cendres Volcan.







- Altitude de l'aérodrome : 90 ft
- Code IATA : NTE
- Voir les cartes d'approche


LFRS - Nantes

DERNIER METAR :
  • 191230Z AUTO 31005KT 220V010 CAVOK 26/10 Q1023 NOSIG

METARs EXPIRÉS :
  • 191200Z AUTO 28005KT 230V340 CAVOK 25/09 Q1023 NOSIG
  • 191130Z AUTO 28005KT 220V320 CAVOK 25/09 Q1024 NOSIG
  • 191100Z AUTO 27005KT 230V350 CAVOK 24/12 Q1024 NOSIG
  • 191030Z AUTO 30005KT 250V340 CAVOK 23/13 Q1024 NOSIG
  • 191000Z AUTO 30004KT 180V350 CAVOK 22/14 Q1024 NOSIG

TAF TAF LFRS
Valide du 19 à 12h jusqu'au 20 à 18h UTC


191100Z 1912/2018 28005KT CAVOK
TEMPO 1916/1920 28010KT
PROB30
TEMPO 1922/2002 3000 BR
BECMG 2002/2004 OVC030
ATIS : +33 2 40 05 12 74
Pas de NOTAMs connus pour ce terrain.



MET'MAP, la Météo Aéronautique d'un coup d'oeil ! - Copyright ORBIFLY Décembre 2007 - Disclaimer

ORBIFLY MET'MAP TEAM :

Programmation & Développement : Alexandra Zaïnal
Conception & Développement : Baudouin d'Aumeries
Co-Programmation & Développement : Marc-Olivier Méhu
Soutien technique & logistique : Manuel Goepfert

Contact : metmap@orbifly.com




SOURCES & CREDITS :

   NOAA